createdAt,value
2022-12-02T00:00:27.454Z,90.33
2022-12-02T00:03:22.260Z,90.40
2022-12-02T00:05:55.363Z,90.64
2022-12-02T00:08:31.377Z,90.71
2022-12-02T00:11:06.656Z,90.61
2022-12-02T00:13:43.764Z,90.55
2022-12-02T00:16:21.405Z,90.57
2022-12-02T00:18:51.601Z,90.68
2022-12-02T00:21:21.504Z,90.79
2022-12-02T00:23:50.115Z,90.68
2022-12-02T00:26:18.608Z,90.77
2022-12-02T00:28:47.075Z,90.56
2022-12-02T00:31:16.102Z,90.63
2022-12-02T00:33:44.712Z,90.41
2022-12-02T00:36:15.252Z,90.49
2022-12-02T00:38:44.918Z,90.73
2022-12-02T00:41:13.598Z,90.50
2022-12-02T00:44:00.448Z,90.69
2022-12-02T00:46:37.987Z,90.69
2022-12-02T00:49:14.957Z,90.84
2022-12-02T00:51:45.030Z,90.76
2022-12-02T00:54:14.482Z,90.58
2022-12-02T00:56:50.444Z,90.69
2022-12-02T00:59:18.995Z,90.72
2022-12-02T01:01:48.785Z,90.49
2022-12-02T01:04:17.610Z,90.85
2022-12-02T01:06:48.144Z,90.73
2022-12-02T01:09:22.929Z,90.51
2022-12-02T01:11:51.567Z,90.54
2022-12-02T01:14:20.988Z,90.45
2022-12-02T01:17:14.909Z,90.62
2022-12-02T01:19:43.401Z,90.51
2022-12-02T01:22:12.035Z,90.44
2022-12-02T01:24:40.573Z,90.39
2022-12-02T01:27:09.600Z,90.59
2022-12-02T01:29:38.967Z,90.82
2022-12-02T01:32:07.723Z,90.84
2022-12-02T01:34:36.244Z,90.98
2022-12-02T01:37:04.764Z,90.82
2022-12-02T01:39:33.405Z,90.86
2022-12-02T01:42:02.065Z,91.24
2022-12-02T01:44:39.126Z,91.48
2022-12-02T01:47:07.926Z,91.02
2022-12-02T01:49:36.516Z,91.29
2022-12-02T01:52:12.871Z,91.55
2022-12-02T01:54:41.436Z,91.38
2022-12-02T01:57:18.514Z,91.37
2022-12-02T01:59:48.167Z,91.21
2022-12-02T02:02:37.276Z,91.24
2022-12-02T02:05:30.359Z,91.66
2022-12-02T02:08:11.265Z,91.89
2022-12-02T02:10:44.091Z,91.71
2022-12-02T02:13:15.780Z,91.64
2022-12-02T02:15:46.621Z,91.08
2022-12-02T02:18:16.957Z,90.92
2022-12-02T02:20:59.326Z,90.35
2022-12-02T02:23:31.227Z,90.35
2022-12-02T02:26:00.250Z,90.16
2022-12-02T02:28:51.844Z,90.05
2022-12-02T02:31:20.451Z,89.75
2022-12-02T02:33:49.805Z,89.93
2022-12-02T02:36:19.828Z,89.84
2022-12-02T02:38:49.501Z,89.63
2022-12-02T02:41:18.531Z,89.33
2022-12-02T02:43:48.025Z,89.24
2022-12-02T02:46:19.377Z,89.34
2022-12-02T02:48:48.875Z,89.54
2022-12-02T02:51:18.005Z,89.14
2022-12-02T02:53:47.829Z,89.09
2022-12-02T02:56:19.085Z,89.09
2022-12-02T02:58:47.695Z,88.77
2022-12-02T03:01:30.291Z,88.59
2022-12-02T03:04:04.526Z,88.91
2022-12-02T03:09:48.268Z,88.95
2022-12-02T03:12:18.108Z,88.45
2022-12-02T03:14:46.741Z,88.78
2022-12-02T03:17:16.363Z,88.80
2022-12-02T03:19:46.816Z,88.94
2022-12-02T03:22:15.499Z,89.01
2022-12-02T03:24:44.302Z,88.85
2022-12-02T03:27:14.267Z,88.93
2022-12-02T03:29:56.022Z,89.14
2022-12-02T03:32:24.846Z,88.90
2022-12-02T03:34:54.155Z,89.05
2022-12-02T03:37:23.813Z,88.99
2022-12-02T03:39:53.257Z,89.14
2022-12-02T03:42:21.936Z,88.97
2022-12-02T03:44:51.508Z,88.53
2022-12-02T03:47:20.068Z,88.56
2022-12-02T03:49:49.405Z,88.39
2022-12-02T03:52:17.966Z,88.84
2022-12-02T03:54:50.496Z,88.87
2022-12-02T03:57:22.256Z,88.80
2022-12-02T03:59:50.998Z,88.64
2022-12-02T04:02:19.565Z,88.37
2022-12-02T04:04:48.238Z,88.25
2022-12-02T04:07:16.795Z,88.36
2022-12-02T04:09:45.304Z,88.30
2022-12-02T04:12:24.644Z,87.86
2022-12-02T04:14:58.343Z,88.08
2022-12-02T04:17:26.961Z,88.28
2022-12-02T04:19:55.904Z,88.49
2022-12-02T04:22:24.475Z,88.06
2022-12-02T04:24:53.323Z,88.48
2022-12-02T04:27:22.047Z,88.50
2022-12-02T04:29:52.307Z,88.58
2022-12-02T04:32:21.671Z,88.48
2022-12-02T04:34:50.553Z,88.65
2022-12-02T04:37:19.291Z,88.33
2022-12-02T04:39:47.766Z,87.80
2022-12-02T04:42:16.494Z,87.77
2022-12-02T04:44:45.008Z,88.10
2022-12-02T04:47:13.686Z,88.14
2022-12-02T04:49:42.296Z,88.11
2022-12-02T04:52:13.133Z,88.15
2022-12-02T04:54:42.120Z,87.81
2022-12-02T04:57:32.707Z,88.14
2022-12-02T05:00:08.320Z,87.52
2022-12-02T05:02:36.962Z,87.54
2022-12-02T05:05:06.326Z,87.69
2022-12-02T05:07:35.025Z,87.54
2022-12-02T05:10:07.613Z,87.75
2022-12-02T05:12:38.026Z,87.63
2022-12-02T05:15:08.753Z,87.49
2022-12-02T05:17:43.831Z,87.60
2022-12-02T05:20:36.051Z,87.66
2022-12-02T05:23:09.897Z,87.60
2022-12-02T05:25:38.425Z,87.56
2022-12-02T05:29:19.832Z,87.39
2022-12-02T05:32:07.885Z,87.42
2022-12-02T05:34:56.949Z,87.31
2022-12-02T05:37:35.704Z,86.93
2022-12-02T05:40:05.420Z,87.10
2022-12-02T05:42:35.532Z,87.05
2022-12-02T05:45:49.571Z,87.20
2022-12-02T05:48:20.268Z,87.15
2022-12-02T05:51:09.612Z,86.89
2022-12-02T05:53:42.038Z,86.76
2022-12-02T05:56:29.150Z,87.12
2022-12-02T05:59:08.393Z,87.30
2022-12-02T06:01:40.286Z,87.22
2022-12-02T06:04:19.464Z,87.26
2022-12-02T06:06:48.700Z,86.97
2022-12-02T06:09:31.318Z,86.90
2022-12-02T06:12:05.334Z,87.05
2022-12-02T06:14:36.917Z,87.11
2022-12-02T06:17:16.552Z,87.28
2022-12-02T06:19:53.778Z,87.32
2022-12-02T06:22:31.965Z,86.44
2022-12-02T06:25:02.366Z,86.55
2022-12-02T06:27:33.505Z,86.77
2022-12-02T06:30:10.013Z,86.69
2022-12-02T06:32:43.021Z,86.71
2022-12-02T06:35:31.020Z,86.18
2022-12-02T06:38:04.043Z,86.10
2022-12-02T06:40:36.625Z,85.57
2022-12-02T06:43:23.106Z,85.55
2022-12-02T06:45:51.850Z,84.93
2022-12-02T06:48:34.713Z,85.24
2022-12-02T06:51:20.453Z,85.59
2022-12-02T06:53:51.645Z,85.51
2022-12-02T06:56:24.933Z,85.45
2022-12-02T06:58:53.618Z,85.81
2022-12-02T07:01:28.556Z,85.80
2022-12-02T07:04:09.329Z,85.05
2022-12-02T07:06:43.789Z,85.03
2022-12-02T07:09:46.788Z,84.81
2022-12-02T07:12:29.926Z,83.96
2022-12-02T07:15:25.563Z,84.19
2022-12-02T07:17:58.108Z,84.00
2022-12-02T07:20:32.462Z,83.54
2022-12-02T07:23:12.034Z,83.64
2022-12-02T07:25:53.355Z,83.39
2022-12-02T07:28:28.065Z,83.58
2022-12-02T07:31:24.692Z,84.05
2022-12-02T07:33:54.246Z,83.62
2022-12-02T07:36:22.954Z,83.37
2022-12-02T07:39:05.974Z,83.59
2022-12-02T07:41:37.280Z,83.36
2022-12-02T07:44:06.737Z,83.07
2022-12-02T07:46:35.523Z,83.15
2022-12-02T07:49:04.077Z,83.05
2022-12-02T07:51:33.518Z,83.16
2022-12-02T07:54:02.047Z,83.02
2022-12-02T07:56:30.541Z,83.07
2022-12-02T07:59:11.892Z,83.38
2022-12-02T08:01:41.477Z,83.43
2022-12-02T08:04:10.154Z,82.71
2022-12-02T08:06:40.106Z,82.28
2022-12-02T08:09:09.851Z,82.08
2022-12-02T08:11:38.944Z,82.94
2022-12-02T08:14:07.574Z,82.73
2022-12-02T08:16:36.093Z,82.99
2022-12-02T08:19:04.676Z,82.86
2022-12-02T08:21:34.660Z,83.36
2022-12-02T08:24:04.418Z,83.12
2022-12-02T08:26:33.395Z,82.21
2022-12-02T08:29:02.028Z,82.25
2022-12-02T08:31:30.535Z,82.58
2022-12-02T08:34:03.753Z,82.00
2022-12-02T08:36:35.987Z,81.77
2022-12-02T08:39:06.147Z,81.56
2022-12-02T08:41:36.373Z,81.50
2022-12-02T08:44:06.384Z,81.20
2022-12-02T08:46:37.046Z,80.96
2022-12-02T08:49:06.516Z,80.82
2022-12-02T08:51:36.961Z,80.21
2022-12-02T08:54:09.314Z,79.95
2022-12-02T08:56:37.786Z,79.61
2022-12-02T08:59:06.320Z,78.96
2022-12-02T09:01:35.157Z,79.64
2022-12-02T09:04:04.041Z,79.51
2022-12-02T09:06:36.073Z,79.90
2022-12-02T09:09:06.201Z,79.82
2022-12-02T09:11:35.142Z,79.98
2022-12-02T09:14:03.865Z,79.69
2022-12-02T09:16:32.500Z,80.26
2022-12-02T09:19:01.181Z,79.29
2022-12-02T09:21:29.923Z,79.27
2022-12-02T09:23:58.571Z,79.11
2022-12-02T09:26:27.113Z,79.13
2022-12-02T09:28:55.630Z,78.88
2022-12-02T09:31:24.224Z,79.03
2022-12-02T09:33:52.834Z,78.57
2022-12-02T09:36:21.483Z,77.00
2022-12-02T09:38:50.239Z,77.21
2022-12-02T09:41:19.341Z,77.28
2022-12-02T09:43:54.626Z,77.78
2022-12-02T09:46:24.920Z,77.48
2022-12-02T09:48:54.120Z,76.77
2022-12-02T09:51:22.872Z,76.99
2022-12-02T09:53:52.489Z,77.95
2022-12-02T09:56:23.394Z,78.03
2022-12-02T09:58:56.204Z,77.69
2022-12-02T10:01:28.069Z,77.98
2022-12-02T10:03:56.665Z,77.70
2022-12-02T10:06:29.324Z,77.63
2022-12-02T10:09:01.123Z,77.98
2022-12-02T10:11:32.920Z,77.81
2022-12-02T10:14:04.049Z,77.62
2022-12-02T10:16:35.244Z,77.26
2022-12-02T10:19:05.621Z,77.72
2022-12-02T10:21:34.803Z,77.69
2022-12-02T10:24:10.107Z,77.56
2022-12-02T10:26:54.015Z,77.49
2022-12-02T10:29:31.782Z,78.19
2022-12-02T10:32:06.861Z,78.04
2022-12-02T10:34:36.856Z,77.87
2022-12-02T10:37:26.061Z,77.38
2022-12-02T10:40:17.851Z,77.48
2022-12-02T10:42:46.587Z,77.82
2022-12-02T10:45:24.549Z,77.73
2022-12-02T10:48:16.668Z,77.53
2022-12-02T10:50:45.454Z,78.07
2022-12-02T10:53:17.806Z,78.25
2022-12-02T10:55:47.689Z,78.25
2022-12-02T10:58:26.981Z,78.01
2022-12-02T11:00:58.399Z,78.22
2022-12-02T11:03:27.194Z,78.36
2022-12-02T11:06:05.852Z,78.06
2022-12-02T11:08:34.547Z,77.40
2022-12-02T11:11:17.614Z,77.94
2022-12-02T11:13:58.061Z,78.34
2022-12-02T11:16:29.641Z,78.49
2022-12-02T11:19:06.173Z,78.63
2022-12-02T11:21:41.749Z,78.65
2022-12-02T11:24:29.129Z,78.82
2022-12-02T11:27:00.923Z,78.64
2022-12-02T11:29:31.807Z,79.28
2022-12-02T11:32:23.255Z,79.17
2022-12-02T11:37:48.893Z,78.65
2022-12-02T11:40:18.046Z,78.99
2022-12-02T11:42:46.852Z,78.64
2022-12-02T11:45:18.373Z,78.72
2022-12-02T11:48:01.031Z,78.54
2022-12-02T11:50:32.627Z,78.87
2022-12-02T11:53:16.629Z,78.82
2022-12-02T11:55:51.144Z,78.78
2022-12-02T11:58:37.606Z,78.99
2022-12-02T12:01:15.420Z,78.76
2022-12-02T12:03:57.630Z,78.95
2022-12-02T12:06:39.745Z,79.39
2022-12-02T12:09:12.158Z,79.44
2022-12-02T12:11:42.419Z,79.54
2022-12-02T12:14:15.071Z,79.54
2022-12-02T12:16:49.783Z,79.95
2022-12-02T12:19:21.184Z,80.09
2022-12-02T12:21:57.511Z,80.44
2022-12-02T12:24:28.670Z,80.81
2022-12-02T12:26:58.561Z,81.37
2022-12-02T12:29:40.083Z,81.41
2022-12-02T12:32:10.445Z,81.68
2022-12-02T12:34:39.296Z,81.73
2022-12-02T12:37:07.927Z,82.47
2022-12-02T12:39:36.409Z,82.80
2022-12-02T12:42:05.053Z,82.86
2022-12-02T12:44:33.548Z,83.14
2022-12-02T12:47:04.586Z,82.92
2022-12-02T12:49:35.092Z,83.45
2022-12-02T12:52:04.089Z,83.43
2022-12-02T12:54:32.742Z,83.40
2022-12-02T12:57:01.248Z,83.26
2022-12-02T12:59:29.842Z,83.42
2022-12-02T13:01:58.632Z,84.05
2022-12-02T13:04:27.303Z,84.17
2022-12-02T13:06:55.808Z,84.38
2022-12-02T13:09:24.345Z,84.41
2022-12-02T13:11:52.897Z,84.71
2022-12-02T13:14:21.771Z,84.46
2022-12-02T13:16:51.812Z,84.67
2022-12-02T13:19:21.013Z,84.75
2022-12-02T13:21:49.757Z,85.19
2022-12-02T13:24:19.196Z,85.58
2022-12-02T13:26:47.668Z,85.05
2022-12-02T13:29:16.251Z,85.72
2022-12-02T13:31:44.930Z,86.62
2022-12-02T13:34:13.766Z,86.36
2022-12-02T13:36:42.212Z,87.25
2022-12-02T13:39:11.979Z,88.05
2022-12-02T13:41:40.610Z,88.37
2022-12-02T13:44:09.164Z,88.52
2022-12-02T13:46:37.796Z,88.75
2022-12-02T13:49:09.723Z,88.60
2022-12-02T13:51:38.563Z,88.46
2022-12-02T13:54:07.213Z,89.00
2022-12-02T13:56:35.886Z,89.04
2022-12-02T13:59:04.991Z,89.15
2022-12-02T14:01:33.827Z,89.19
2022-12-02T14:04:02.483Z,89.48
2022-12-02T14:06:31.135Z,89.76
2022-12-02T14:08:59.662Z,89.88
2022-12-02T14:11:28.359Z,89.93
2022-12-02T14:13:57.074Z,89.40
2022-12-02T14:16:25.725Z,89.45
2022-12-02T14:18:57.536Z,89.40
2022-12-02T14:21:26.742Z,89.12
2022-12-02T14:23:55.625Z,89.62
2022-12-02T14:26:24.350Z,89.73
2022-12-02T14:28:53.207Z,89.74
2022-12-02T14:31:26.491Z,90.22
2022-12-02T14:34:13.164Z,90.38
2022-12-02T14:36:43.589Z,90.61
2022-12-02T14:39:12.482Z,90.41
2022-12-02T14:41:41.273Z,90.18
2022-12-02T14:44:09.832Z,90.70
2022-12-02T14:46:39.328Z,90.84
2022-12-02T14:49:38.910Z,91.48
2022-12-02T14:51:57.001Z,91.29
2022-12-02T14:54:25.643Z,91.05
2022-12-02T14:56:54.313Z,91.05
2022-12-02T14:59:23.502Z,90.97
2022-12-02T15:01:52.151Z,91.98
2022-12-02T15:04:20.923Z,92.02
2022-12-02T15:06:49.679Z,92.70
2022-12-02T15:09:18.365Z,92.86
2022-12-02T15:11:46.960Z,93.18
2022-12-02T15:14:15.558Z,93.30
2022-12-02T15:16:44.215Z,93.58
2022-12-02T15:19:12.986Z,93.65
2022-12-02T15:21:43.462Z,93.77
2022-12-02T15:24:11.981Z,93.89
2022-12-02T15:26:41.281Z,93.82
2022-12-02T15:29:09.923Z,94.10
2022-12-02T15:31:38.547Z,94.81
2022-12-02T15:34:07.448Z,94.79
2022-12-02T15:36:36.776Z,94.91
2022-12-02T15:39:05.530Z,94.83
2022-12-02T15:41:34.061Z,95.37
2022-12-02T15:44:02.637Z,95.67
2022-12-02T15:46:31.360Z,95.59
2022-12-02T15:49:00.202Z,95.29
2022-12-02T15:51:28.848Z,95.30
2022-12-02T15:53:57.499Z,95.46
2022-12-02T15:56:26.044Z,95.64
2022-12-02T15:58:55.256Z,95.72
2022-12-02T16:01:24.108Z,95.86
2022-12-02T16:03:52.971Z,95.58
2022-12-02T16:06:21.807Z,95.63
2022-12-02T16:08:55.205Z,95.94
2022-12-02T16:11:24.553Z,95.75
2022-12-02T16:13:53.112Z,95.86
2022-12-02T16:16:21.709Z,95.47
2022-12-02T16:18:50.669Z,95.31
2022-12-02T16:21:19.515Z,95.50
2022-12-02T16:23:58.218Z,96.10
2022-12-02T16:26:29.015Z,95.86
2022-12-02T16:28:57.678Z,95.65
2022-12-02T16:31:26.445Z,96.11
2022-12-02T16:33:55.860Z,95.76
2022-12-02T16:36:24.641Z,96.02
2022-12-02T16:38:53.212Z,95.58
2022-12-02T16:41:21.988Z,95.81
2022-12-02T16:43:50.684Z,95.76
2022-12-02T16:46:19.550Z,95.75
2022-12-02T16:48:50.428Z,95.81
2022-12-02T16:51:18.969Z,95.83
2022-12-02T16:53:47.689Z,96.23
2022-12-02T16:56:16.258Z,97.51
2022-12-02T16:58:44.932Z,97.06
2022-12-02T17:01:13.733Z,96.61
2022-12-02T17:03:42.493Z,96.25
2022-12-02T17:06:11.494Z,96.23
2022-12-02T17:12:15.364Z,96.36
2022-12-02T17:14:43.919Z,95.93
2022-12-02T17:17:37.754Z,95.76
2022-12-02T17:20:01.189Z,95.82
2022-12-02T17:22:29.906Z,95.70
2022-12-02T17:24:58.743Z,95.68
2022-12-02T17:27:27.411Z,95.93
2022-12-02T17:29:56.007Z,95.66
2022-12-02T17:32:24.716Z,95.61
2022-12-02T17:34:53.636Z,95.89
2022-12-02T17:37:22.556Z,95.57
2022-12-02T17:39:51.241Z,95.27
2022-12-02T17:42:19.835Z,95.03
2022-12-02T17:44:48.395Z,94.82
2022-12-02T17:47:17.187Z,94.90
2022-12-02T17:49:45.662Z,94.96
2022-12-02T17:52:21.738Z,95.02
2022-12-02T17:54:50.984Z,95.26
2022-12-02T17:57:20.120Z,95.36
2022-12-02T17:59:48.676Z,95.61
2022-12-02T18:02:17.379Z,95.56
2022-12-02T18:04:47.140Z,95.92
2022-12-02T18:07:15.925Z,95.17
2022-12-02T18:09:45.135Z,95.18
2022-12-02T18:12:15.755Z,95.26
2022-12-02T18:14:44.415Z,94.95
2022-12-02T18:17:13.084Z,94.77
2022-12-02T18:19:41.993Z,94.93
2022-12-02T18:22:10.554Z,95.23
2022-12-02T18:24:39.027Z,94.93
2022-12-02T18:27:07.751Z,94.66
2022-12-02T18:29:36.408Z,94.60
2022-12-02T18:32:05.033Z,94.78
2022-12-02T18:34:33.673Z,94.59
2022-12-02T18:37:02.218Z,94.76
2022-12-02T18:39:30.806Z,94.92
2022-12-02T18:41:59.293Z,95.23
2022-12-02T18:44:28.855Z,95.29
2022-12-02T18:46:57.421Z,95.55
2022-12-02T18:49:25.985Z,95.73
2022-12-02T18:51:55.147Z,95.65
2022-12-02T18:54:23.826Z,95.60
2022-12-02T18:56:52.550Z,95.53
2022-12-02T19:04:32.975Z,95.76
2022-12-02T19:07:01.800Z,95.39
2022-12-02T19:09:30.428Z,95.61
2022-12-02T19:11:59.068Z,95.53
2022-12-02T19:14:27.541Z,95.65
2022-12-02T19:16:56.021Z,96.07
2022-12-02T19:19:24.835Z,96.29
2022-12-02T19:21:53.461Z,96.78
2022-12-02T19:24:22.025Z,96.53
2022-12-02T19:26:50.563Z,96.43
2022-12-02T19:29:19.050Z,96.41
2022-12-02T19:31:47.582Z,96.27
2022-12-02T19:34:16.157Z,96.13
2022-12-02T19:36:46.676Z,95.78
2022-12-02T19:39:16.255Z,96.01
2022-12-02T19:41:45.385Z,95.89
2022-12-02T19:44:14.132Z,96.03
2022-12-02T19:46:42.749Z,96.10
2022-12-02T19:49:11.574Z,96.14
2022-12-02T19:51:40.168Z,96.21
2022-12-02T19:54:08.950Z,96.38
2022-12-02T19:56:37.526Z,96.20
2022-12-02T19:59:06.169Z,96.08
2022-12-02T20:01:39.075Z,96.40
2022-12-02T20:04:33.437Z,96.28
2022-12-02T20:06:56.925Z,95.95
2022-12-02T20:09:26.689Z,96.38
2022-12-02T20:11:55.256Z,96.43
2022-12-02T20:14:23.873Z,96.40
2022-12-02T20:16:52.394Z,96.21
2022-12-02T20:19:20.989Z,96.25
2022-12-02T20:21:49.593Z,96.62
2022-12-02T20:24:18.218Z,96.54
2022-12-02T20:26:46.791Z,96.56
2022-12-02T20:29:15.281Z,96.45
2022-12-02T20:31:43.961Z,96.65
2022-12-02T20:34:12.517Z,96.58
2022-12-02T20:36:41.036Z,96.56
2022-12-02T20:39:10.494Z,96.65
2022-12-02T20:41:39.275Z,96.68
2022-12-02T20:44:07.920Z,96.64
2022-12-02T20:46:36.512Z,96.32
2022-12-02T20:49:05.109Z,96.56
2022-12-02T20:51:35.504Z,96.53
2022-12-02T20:54:04.120Z,96.61
2022-12-02T20:56:32.663Z,96.41
2022-12-02T20:59:01.167Z,96.26
2022-12-02T21:01:29.714Z,96.29
2022-12-02T21:03:58.354Z,96.31
2022-12-02T21:06:26.875Z,96.65
2022-12-02T21:08:56.688Z,96.69
2022-12-02T21:11:25.456Z,96.51
2022-12-02T21:13:53.953Z,96.63
2022-12-02T21:16:22.537Z,96.88
2022-12-02T21:18:51.186Z,97.08
2022-12-02T21:21:19.669Z,96.89
2022-12-02T21:23:48.089Z,96.66
2022-12-02T21:26:16.667Z,97.10
2022-12-02T21:28:45.382Z,97.20
2022-12-02T21:31:16.224Z,96.91
2022-12-02T21:33:45.511Z,96.71
2022-12-02T21:36:14.207Z,96.74
2022-12-02T21:38:42.668Z,96.59
2022-12-02T21:41:11.348Z,96.46
2022-12-02T21:43:40.003Z,96.26
2022-12-02T21:46:08.560Z,96.25
2022-12-02T21:48:41.041Z,96.14
2022-12-02T22:04:23.836Z,95.90
2022-12-02T22:07:12.513Z,95.54
2022-12-02T22:09:41.269Z,95.44
2022-12-02T22:12:10.332Z,95.38
2022-12-02T22:14:44.536Z,95.23
2022-12-02T22:17:13.445Z,95.06
2022-12-02T22:19:42.639Z,95.23
2022-12-02T22:22:11.728Z,95.49
2022-12-02T22:24:40.318Z,95.80
2022-12-02T22:27:08.891Z,95.59
2022-12-02T22:29:37.490Z,96.44
2022-12-02T22:32:06.484Z,96.24
2022-12-02T22:34:35.080Z,96.26
2022-12-02T22:37:04.359Z,96.43
2022-12-02T22:39:32.927Z,96.44
2022-12-02T22:42:01.571Z,96.76
2022-12-02T22:44:30.183Z,97.17
2022-12-02T22:46:58.814Z,96.89
2022-12-02T22:49:27.325Z,96.97
2022-12-02T22:51:56.044Z,96.75
2022-12-02T22:54:24.686Z,96.68
2022-12-02T22:56:53.328Z,96.68
2022-12-02T22:59:21.959Z,96.89
2022-12-02T23:01:50.704Z,96.81
2022-12-02T23:04:19.385Z,97.09
2022-12-02T23:06:48.475Z,97.18
2022-12-02T23:09:16.976Z,97.43
2022-12-02T23:11:45.591Z,97.05
2022-12-02T23:14:14.201Z,96.96
2022-12-02T23:16:42.956Z,97.00
2022-12-02T23:19:11.725Z,97.05
2022-12-02T23:21:40.350Z,97.10
2022-12-02T23:24:09.535Z,97.00
2022-12-02T23:26:38.165Z,96.70
2022-12-02T23:29:06.768Z,96.70
2022-12-02T23:31:35.462Z,96.69
2022-12-02T23:34:04.098Z,96.36
2022-12-02T23:36:35.213Z,95.76
2022-12-02T23:39:04.429Z,95.43
2022-12-02T23:41:33.008Z,94.91
2022-12-02T23:44:01.631Z,94.57
2022-12-02T23:46:30.257Z,94.14
2022-12-02T23:48:58.798Z,94.10
2022-12-02T23:51:27.552Z,94.16
2022-12-02T23:53:56.237Z,94.08
2022-12-02T23:56:24.943Z,93.66
2022-12-02T23:58:53.710Z,93.48
